sensor_id;sensor_type;location;lat;lon;timestamp;noise_LAeq;noise_LA_min;noise_LA_max;noise_LA01;noise_LA95
67298;Laerm;65443;51.436;5.978;2024-03-23T00:52:49;41.15;36.52;44.55;;
67298;Laerm;65443;51.436;5.978;2024-03-23T00:52:59;36.97;33.69;48.00;;
67298;Laerm;65443;51.436;5.978;2024-03-23T00:53:31;33.51;30.74;47.36;;
67298;Laerm;65443;51.436;5.978;2024-03-23T00:53:42;33.04;30.52;41.68;;
67298;Laerm;65443;51.436;5.978;2024-03-23T00:54:03;33.33;31.35;36.81;;
67298;Laerm;65443;51.436;5.978;2024-03-23T00:54:13;33.00;31.14;37.95;;
67298;Laerm;65443;51.436;5.978;2024-03-23T00:54:23;33.19;31.05;37.99;;
67298;Laerm;65443;51.436;5.978;2024-03-23T00:54:34;33.50;30.73;37.58;;
67298;Laerm;65443;51.436;5.978;2024-03-23T00:54:44;33.92;31.51;42.73;;
67298;Laerm;65443;51.436;5.978;2024-03-23T00:54:54;35.22;31.93;43.43;;
67298;Laerm;65443;51.436;5.978;2024-03-23T00:55:05;40.16;32.08;52.44;;
67298;Laerm;65443;51.436;5.978;2024-03-23T00:55:15;33.46;31.35;37.25;;
67298;Laerm;65443;51.436;5.978;2024-03-23T00:55:26;32.96;30.88;38.23;;
67298;Laerm;65443;51.436;5.978;2024-03-23T00:55:36;33.49;31.01;37.30;;
67298;Laerm;65443;51.436;5.978;2024-03-23T00:55:46;33.55;30.98;37.65;;
67298;Laerm;65443;51.436;5.978;2024-03-23T00:55:56;33.85;30.82;51.08;;
67298;Laerm;65443;51.436;5.978;2024-03-23T00:56:07;32.85;30.61;35.84;;
67298;Laerm;65443;51.436;5.978;2024-03-23T00:56:17;33.47;30.87;37.55;;
67298;Laerm;65443;51.436;5.978;2024-03-23T00:56:28;32.85;30.90;42.10;;
67298;Laerm;65443;51.436;5.978;2024-03-23T00:56:38;33.30;30.36;37.39;;
67298;Laerm;65443;51.436;5.978;2024-03-23T00:56:48;34.54;32.25;37.89;;
67298;Laerm;65443;51.436;5.978;2024-03-23T00:56:58;37.58;34.06;42.10;;
67298;Laerm;65443;51.436;5.978;2024-03-23T00:57:08;50.02;39.05;58.82;;
67298;Laerm;65443;51.436;5.978;2024-03-23T00:57:19;61.13;42.94;68.11;;
67298;Laerm;65443;51.436;5.978;2024-03-23T00:57:30;40.65;36.76;43.78;;
67298;Laerm;65443;51.436;5.978;2024-03-23T00:57:40;36.08;31.99;46.59;;
67298;Laerm;65443;51.436;5.978;2024-03-23T00:57:50;34.23;31.76;36.84;;
67298;Laerm;65443;51.436;5.978;2024-03-23T00:58:01;35.02;31.70;51.97;;
67298;Laerm;65443;51.436;5.978;2024-03-23T00:58:11;33.19;30.82;39.91;;
67298;Laerm;65443;51.436;5.978;2024-03-23T00:58:21;33.54;30.48;41.41;;
67298;Laerm;65443;51.436;5.978;2024-03-23T00:58:31;32.81;30.12;36.54;;
67298;Laerm;65443;51.436;5.978;2024-03-23T00:58:42;33.27;30.50;42.97;;
67298;Laerm;65443;51.436;5.978;2024-03-23T00:58:52;33.30;29.76;42.16;;
67298;Laerm;65443;51.436;5.978;2024-03-23T00:59:02;33.53;30.77;38.73;;
67298;Laerm;65443;51.436;5.978;2024-03-23T00:59:13;40.14;30.87;63.83;;
67298;Laerm;65443;51.436;5.978;2024-03-23T00:59:23;33.41;30.59;45.81;;
67298;Laerm;65443;51.436;5.978;2024-03-23T00:59:37;33.24;30.94;37.74;;
67298;Laerm;65443;51.436;5.978;2024-03-23T00:59:47;33.50;30.84;37.95;;
67298;Laerm;65443;51.436;5.978;2024-03-23T00:59:57;33.51;31.07;37.44;;
67298;Laerm;65443;51.436;5.978;2024-03-23T01:00:08;61.38;31.02;76.75;;
67298;Laerm;65443;51.436;5.978;2024-03-23T01:00:20;43.89;30.52;60.49;;
67298;Laerm;65443;51.436;5.978;2024-03-23T01:00:30;32.84;30.70;38.45;;
67298;Laerm;65443;51.436;5.978;2024-03-23T01:00:41;33.17;30.62;37.11;;
67298;Laerm;65443;51.436;5.978;2024-03-23T01:00:51;33.22;30.59;37.56;;
67298;Laerm;65443;51.436;5.978;2024-03-23T01:01:02;32.93;30.40;37.54;;
67298;Laerm;65443;51.436;5.978;2024-03-23T01:01:13;32.68;30.33;36.94;;
67298;Laerm;65443;51.436;5.978;2024-03-23T01:01:24;32.85;30.02;35.92;;
67298;Laerm;65443;51.436;5.978;2024-03-23T01:01:34;32.98;30.04;38.17;;
67298;Laerm;65443;51.436;5.978;2024-03-23T01:01:44;32.74;30.27;35.49;;
67298;Laerm;65443;51.436;5.978;2024-03-23T01:01:55;32.59;30.45;37.12;;
67298;Laerm;65443;51.436;5.978;2024-03-23T01:02:05;33.30;30.44;37.63;;
67298;Laerm;65443;51.436;5.978;2024-03-23T01:02:15;33.10;30.65;37.64;;
67298;Laerm;65443;51.436;5.978;2024-03-23T01:02:26;33.30;30.20;39.73;;
67298;Laerm;65443;51.436;5.978;2024-03-23T01:02:36;33.70;30.35;38.87;;
67298;Laerm;65443;51.436;5.978;2024-03-23T01:02:46;33.34;30.15;42.94;;
67298;Laerm;65443;51.436;5.978;2024-03-23T01:02:57;33.22;30.67;37.12;;
67298;Laerm;65443;51.436;5.978;2024-03-23T01:03:07;33.31;30.73;39.30;;
67298;Laerm;65443;51.436;5.978;2024-03-23T01:03:17;33.27;30.20;37.58;;
67298;Laerm;65443;51.436;5.978;2024-03-23T01:03:28;33.40;30.56;38.01;;
67298;Laerm;65443;51.436;5.978;2024-03-23T01:03:38;33.27;30.44;37.00;;
67298;Laerm;65443;51.436;5.978;2024-03-23T01:03:48;33.60;31.19;39.16;;
67298;Laerm;65443;51.436;5.978;2024-03-23T01:03:58;33.37;30.81;40.32;;
67298;Laerm;65443;51.436;5.978;2024-03-23T01:04:09;33.49;30.87;38.93;;
67298;Laerm;65443;51.436;5.978;2024-03-23T01:04:19;33.23;30.46;38.26;;
67298;Laerm;65443;51.436;5.978;2024-03-23T01:04:30;33.61;30.15;37.86;;
67298;Laerm;65443;51.436;5.978;2024-03-23T01:04:40;33.66;30.69;39.08;;
67298;Laerm;65443;51.436;5.978;2024-03-23T01:04:50;33.03;30.39;38.74;;
67298;Laerm;65443;51.436;5.978;2024-03-23T01:05:00;33.03;30.42;36.26;;
67298;Laerm;65443;51.436;5.978;2024-03-23T01:05:11;32.01;30.19;36.44;;
67298;Laerm;65443;51.436;5.978;2024-03-23T01:05:21;31.65;30.21;34.80;;
67298;Laerm;65443;51.436;5.978;2024-03-23T01:05:31;33.05;30.16;37.53;;
67298;Laerm;65443;51.436;5.978;2024-03-23T01:05:42;33.24;30.39;36.82;;
67298;Laerm;65443;51.436;5.978;2024-03-23T01:05:52;33.14;30.42;36.33;;
67298;Laerm;65443;51.436;5.978;2024-03-23T01:06:04;33.61;30.63;45.73;;
67298;Laerm;65443;51.436;5.978;2024-03-23T01:06:14;33.53;30.78;40.20;;
67298;Laerm;65443;51.436;5.978;2024-03-23T01:06:24;33.34;30.78;38.84;;
67298;Laerm;65443;51.436;5.978;2024-03-23T01:06:35;34.60;31.13;45.82;;
67298;Laerm;65443;51.436;5.978;2024-03-23T01:06:45;35.37;31.83;48.31;;
67298;Laerm;65443;51.436;5.978;2024-03-23T01:06:55;42.90;35.21;50.21;;
67298;Laerm;65443;51.436;5.978;2024-03-23T01:07:05;57.03;49.96;63.91;;
67298;Laerm;65443;51.436;5.978;2024-03-23T01:07:16;45.99;38.65;51.86;;
67298;Laerm;65443;51.436;5.978;2024-03-23T01:07:26;37.85;34.29;41.38;;
67298;Laerm;65443;51.436;5.978;2024-03-23T01:07:36;36.68;33.63;41.01;;
67298;Laerm;65443;51.436;5.978;2024-03-23T01:07:47;35.59;32.43;39.65;;
67298;Laerm;65443;51.436;5.978;2024-03-23T01:07:57;34.54;31.75;37.98;;
67298;Laerm;65443;51.436;5.978;2024-03-23T01:08:07;36.06;32.47;40.78;;
67298;Laerm;65443;51.436;5.978;2024-03-23T01:08:17;41.08;37.29;44.81;;
67298;Laerm;65443;51.436;5.978;2024-03-23T01:08:28;62.59;42.02;72.40;;
67298;Laerm;65443;51.436;5.978;2024-03-23T01:08:38;43.99;35.16;50.59;;
67298;Laerm;65443;51.436;5.978;2024-03-23T01:08:48;35.83;33.49;38.64;;
67298;Laerm;65443;51.436;5.978;2024-03-23T01:08:59;34.92;32.24;37.95;;
67298;Laerm;65443;51.436;5.978;2024-03-23T01:09:09;32.48;30.82;37.03;;
67298;Laerm;65443;51.436;5.978;2024-03-23T01:09:21;32.54;30.97;36.88;;
67298;Laerm;65443;51.436;5.978;2024-03-23T01:09:32;32.36;30.56;38.04;;
67298;Laerm;65443;51.436;5.978;2024-03-23T01:09:43;31.92;30.20;38.34;;
67298;Laerm;65443;51.436;5.978;2024-03-23T01:09:53;31.84;30.59;35.99;;
67298;Laerm;65443;51.436;5.978;2024-03-23T01:10:04;31.84;30.45;34.55;;
67298;Laerm;65443;51.436;5.978;2024-03-23T01:10:14;31.67;30.29;33.70;;
67298;Laerm;65443;51.436;5.978;2024-03-23T01:10:25;31.65;30.09;34.91;;
67298;Laerm;65443;51.436;5.978;2024-03-23T01:10:35;31.52;29.75;38.81;;
67298;Laerm;65443;51.436;5.978;2024-03-23T01:10:55;32.28;30.19;47.48;;
67298;Laerm;65443;51.436;5.978;2024-03-23T01:11:05;31.85;30.27;37.57;;
67298;Laerm;65443;51.436;5.978;2024-03-23T01:11:16;31.95;30.46;40.89;;
67298;Laerm;65443;51.436;5.978;2024-03-23T01:11:26;31.99;30.58;37.80;;
67298;Laerm;65443;51.436;5.978;2024-03-23T01:11:37;31.59;30.16;35.10;;
67298;Laerm;65443;51.436;5.978;2024-03-23T01:11:47;31.61;29.81;33.45;;
67298;Laerm;65443;51.436;5.978;2024-03-23T01:11:57;31.57;30.08;33.28;;
67298;Laerm;65443;51.436;5.978;2024-03-23T01:12:08;31.64;30.22;35.66;;
67298;Laerm;65443;51.436;5.978;2024-03-23T01:12:18;31.59;30.09;34.52;;
67298;Laerm;65443;51.436;5.978;2024-03-23T01:12:29;31.91;30.06;34.80;;
67298;Laerm;65443;51.436;5.978;2024-03-23T01:12:39;31.91;29.62;38.21;;
67298;Laerm;65443;51.436;5.978;2024-03-23T01:12:49;31.70;30.11;33.27;;
67298;Laerm;65443;51.436;5.978;2024-03-23T01:12:59;31.82;29.73;36.48;;
67298;Laerm;65443;51.436;5.978;2024-03-23T01:13:10;31.93;30.10;35.80;;
67298;Laerm;65443;51.436;5.978;2024-03-23T01:13:20;31.77;29.91;34.24;;
67298;Laerm;65443;51.436;5.978;2024-03-23T01:13:32;31.59;30.07;37.06;;
67298;Laerm;65443;51.436;5.978;2024-03-23T01:13:42;31.78;29.98;37.43;;
67298;Laerm;65443;51.436;5.978;2024-03-23T01:13:53;31.47;30.18;35.24;;
67298;Laerm;65443;51.436;5.978;2024-03-23T01:14:06;31.61;29.90;36.21;;
67298;Laerm;65443;51.436;5.978;2024-03-23T01:14:16;31.55;29.77;35.23;;
67298;Laerm;65443;51.436;5.978;2024-03-23T01:14:26;31.63;29.45;38.44;;
67298;Laerm;65443;51.436;5.978;2024-03-23T01:14:37;31.44;29.62;33.77;;
67298;Laerm;65443;51.436;5.978;2024-03-23T01:14:47;31.43;30.01;35.43;;
67298;Laerm;65443;51.436;5.978;2024-03-23T01:14:57;31.32;29.92;38.15;;
67298;Laerm;65443;51.436;5.978;2024-03-23T01:15:07;31.29;30.02;34.69;;
67298;Laerm;65443;51.436;5.978;2024-03-23T01:15:18;31.17;29.84;34.34;;
67298;Laerm;65443;51.436;5.978;2024-03-23T01:15:28;31.31;29.70;36.72;;
67298;Laerm;65443;51.436;5.978;2024-03-23T01:15:38;31.24;29.87;32.51;;
67298;Laerm;65443;51.436;5.978;2024-03-23T01:15:52;31.24;29.68;35.29;;
67298;Laerm;65443;51.436;5.978;2024-03-23T01:16:02;31.30;29.82;35.35;;
67298;Laerm;65443;51.436;5.978;2024-03-23T01:16:13;31.40;30.04;34.05;;
67298;Laerm;65443;51.436;5.978;2024-03-23T01:16:23;31.25;29.62;32.79;;
67298;Laerm;65443;51.436;5.978;2024-03-23T01:16:33;31.21;29.71;34.35;;
67298;Laerm;65443;51.436;5.978;2024-03-23T01:16:44;31.25;29.70;37.44;;
67298;Laerm;65443;51.436;5.978;2024-03-23T01:16:54;31.02;29.88;32.63;;
67298;Laerm;65443;51.436;5.978;2024-03-23T01:17:04;33.20;29.87;49.51;;
67298;Laerm;65443;51.436;5.978;2024-03-23T01:17:14;31.29;29.97;33.85;;
67298;Laerm;65443;51.436;5.978;2024-03-23T01:17:25;31.41;30.12;35.65;;
67298;Laerm;65443;51.436;5.978;2024-03-23T01:17:35;32.01;29.98;46.43;;
67298;Laerm;65443;51.436;5.978;2024-03-23T01:17:45;31.24;30.01;32.57;;
67298;Laerm;65443;51.436;5.978;2024-03-23T01:17:55;31.32;29.81;34.26;;
67298;Laerm;65443;51.436;5.978;2024-03-23T01:18:06;31.99;29.96;37.07;;
67298;Laerm;65443;51.436;5.978;2024-03-23T01:18:16;32.14;30.37;35.46;;
67298;Laerm;65443;51.436;5.978;2024-03-23T01:18:26;32.33;30.68;38.87;;
67298;Laerm;65443;51.436;5.978;2024-03-23T01:18:36;32.12;30.67;33.51;;
67298;Laerm;65443;51.436;5.978;2024-03-23T01:18:47;32.93;31.60;36.38;;
67298;Laerm;65443;51.436;5.978;2024-03-23T01:18:58;34.58;32.20;41.96;;
67298;Laerm;65443;51.436;5.978;2024-03-23T01:19:08;36.76;33.80;43.77;;
67298;Laerm;65443;51.436;5.978;2024-03-23T01:19:19;50.25;37.78;59.77;;
67298;Laerm;65443;51.436;5.978;2024-03-23T01:19:29;62.16;50.43;68.13;;
67298;Laerm;65443;51.436;5.978;2024-03-23T01:19:39;46.77;43.69;51.42;;
67298;Laerm;65443;51.436;5.978;2024-03-23T01:19:51;49.60;41.66;59.25;;
67298;Laerm;65443;51.436;5.978;2024-03-23T01:20:01;56.86;51.23;62.77;;
67298;Laerm;65443;51.436;5.978;2024-03-23T01:20:12;64.91;49.29;73.05;;
67298;Laerm;65443;51.436;5.978;2024-03-23T01:20:23;51.43;40.53;65.04;;
67298;Laerm;65443;51.436;5.978;2024-03-23T01:20:33;38.51;34.24;41.91;;
67298;Laerm;65443;51.436;5.978;2024-03-23T01:20:43;34.01;32.18;35.89;;
67298;Laerm;65443;51.436;5.978;2024-03-23T01:20:53;34.54;31.47;37.52;;
67298;Laerm;65443;51.436;5.978;2024-03-23T01:21:04;32.61;31.24;35.59;;
67298;Laerm;65443;51.436;5.978;2024-03-23T01:21:14;32.52;30.80;34.52;;
67298;Laerm;65443;51.436;5.978;2024-03-23T01:21:24;31.85;30.31;33.67;;
67298;Laerm;65443;51.436;5.978;2024-03-23T01:21:35;31.55;29.98;33.25;;
67298;Laerm;65443;51.436;5.978;2024-03-23T01:21:45;31.28;29.96;37.04;;
67298;Laerm;65443;51.436;5.978;2024-03-23T01:21:55;31.08;30.00;33.68;;
67298;Laerm;65443;51.436;5.978;2024-03-23T01:22:05;31.09;29.79;34.49;;
67298;Laerm;65443;51.436;5.978;2024-03-23T01:22:16;31.22;29.84;33.43;;
67298;Laerm;65443;51.436;5.978;2024-03-23T01:22:26;31.22;29.94;33.59;;
67298;Laerm;65443;51.436;5.978;2024-03-23T01:22:36;31.58;30.36;32.98;;
67298;Laerm;65443;51.436;5.978;2024-03-23T01:22:47;31.73;30.07;39.25;;
67298;Laerm;65443;51.436;5.978;2024-03-23T01:22:57;31.66;29.92;33.32;;
67298;Laerm;65443;51.436;5.978;2024-03-23T01:23:07;32.20;30.64;34.57;;
67298;Laerm;65443;51.436;5.978;2024-03-23T01:23:17;34.46;32.08;37.23;;
67298;Laerm;65443;51.436;5.978;2024-03-23T01:23:28;38.75;34.84;45.24;;
67298;Laerm;65443;51.436;5.978;2024-03-23T01:23:38;57.15;41.01;63.51;;
67298;Laerm;65443;51.436;5.978;2024-03-23T01:23:48;43.66;36.89;51.56;;
67298;Laerm;65443;51.436;5.978;2024-03-23T01:23:59;34.92;32.66;38.57;;
67298;Laerm;65443;51.436;5.978;2024-03-23T01:24:09;34.51;32.70;36.67;;
67298;Laerm;65443;51.436;5.978;2024-03-23T01:24:20;32.23;30.36;35.68;;
67298;Laerm;65443;51.436;5.978;2024-03-23T01:24:31;32.31;30.92;38.19;;
67298;Laerm;65443;51.436;5.978;2024-03-23T01:24:41;31.75;30.22;35.26;;
67298;Laerm;65443;51.436;5.978;2024-03-23T01:24:51;31.47;30.15;33.14;;
67298;Laerm;65443;51.436;5.978;2024-03-23T01:25:02;31.46;29.90;36.40;;
67298;Laerm;65443;51.436;5.978;2024-03-23T01:25:12;31.60;29.95;37.03;;
67298;Laerm;65443;51.436;5.978;2024-03-23T01:25:22;35.56;30.96;42.71;;
67298;Laerm;65443;51.436;5.978;2024-03-23T01:25:32;33.47;30.00;39.78;;
67298;Laerm;65443;51.436;5.978;2024-03-23T01:25:51;31.46;29.64;34.58;;
67298;Laerm;65443;51.436;5.978;2024-03-23T01:26:01;31.42;29.74;35.51;;
67298;Laerm;65443;51.436;5.978;2024-03-23T01:26:11;31.45;29.98;35.45;;
67298;Laerm;65443;51.436;5.978;2024-03-23T01:26:22;31.41;29.79;33.29;;
67298;Laerm;65443;51.436;5.978;2024-03-23T01:26:32;31.32;29.76;32.95;;
67298;Laerm;65443;51.436;5.978;2024-03-23T01:26:43;31.42;29.66;40.74;;
67298;Laerm;65443;51.436;5.978;2024-03-23T01:26:53;31.47;29.82;37.42;;
67298;Laerm;65443;51.436;5.978;2024-03-23T01:27:04;31.35;29.95;33.17;;
67298;Laerm;65443;51.436;5.978;2024-03-23T01:27:14;31.56;29.87;37.89;;
67298;Laerm;65443;51.436;5.978;2024-03-23T01:27:24;31.49;29.96;36.27;;
67298;Laerm;65443;51.436;5.978;2024-03-23T01:27:35;31.52;29.92;36.88;;
67298;Laerm;65443;51.436;5.978;2024-03-23T01:27:45;31.32;29.78;33.41;;
67298;Laerm;65443;51.436;5.978;2024-03-23T01:27:56;31.98;29.90;34.76;;
67298;Laerm;65443;51.436;5.978;2024-03-23T01:28:06;31.75;29.71;34.64;;
67298;Laerm;65443;51.436;5.978;2024-03-23T01:28:17;31.71;29.58;36.12;;
67298;Laerm;65443;51.436;5.978;2024-03-23T01:28:27;32.00;29.73;35.01;;
67298;Laerm;65443;51.436;5.978;2024-03-23T01:28:37;32.32;30.77;34.76;;
67298;Laerm;65443;51.436;5.978;2024-03-23T01:28:48;39.63;30.87;55.45;;
67298;Laerm;65443;51.436;5.978;2024-03-23T01:28:58;36.45;30.44;50.06;;
67298;Laerm;65443;51.436;5.978;2024-03-23T01:29:08;31.95;29.99;37.86;;
67298;Laerm;65443;51.436;5.978;2024-03-23T01:29:18;31.94;29.58;44.25;;
67298;Laerm;65443;51.436;5.978;2024-03-23T01:29:28;31.89;29.98;34.30;;
67298;Laerm;65443;51.436;5.978;2024-03-23T01:29:39;31.90;30.09;37.05;;
67298;Laerm;65443;51.436;5.978;2024-03-23T01:29:49;31.59;29.47;34.02;;
67298;Laerm;65443;51.436;5.978;2024-03-23T01:29:59;32.00;30.26;37.99;;
67298;Laerm;65443;51.436;5.978;2024-03-23T01:30:10;32.13;30.11;34.58;;
67298;Laerm;65443;51.436;5.978;2024-03-23T01:30:20;31.47;29.94;34.58;;
67298;Laerm;65443;51.436;5.978;2024-03-23T01:30:30;31.19;29.72;34.55;;
67298;Laerm;65443;51.436;5.978;2024-03-23T01:30:41;31.74;29.57;35.37;;
67298;Laerm;65443;51.436;5.978;2024-03-23T01:30:51;31.58;29.68;32.90;;
67298;Laerm;65443;51.436;5.978;2024-03-23T01:31:02;31.78;29.96;34.97;;
67298;Laerm;65443;51.436;5.978;2024-03-23T01:31:12;59.45;30.01;78.78;;
67298;Laerm;65443;51.436;5.978;2024-03-23T01:31:22;31.56;30.19;33.61;;
67298;Laerm;65443;51.436;5.978;2024-03-23T01:31:33;31.31;29.89;33.09;;
67298;Laerm;65443;51.436;5.978;2024-03-23T01:31:43;31.50;29.88;33.18;;
67298;Laerm;65443;51.436;5.978;2024-03-23T01:31:53;31.38;29.90;33.07;;
67298;Laerm;65443;51.436;5.978;2024-03-23T01:32:04;31.40;30.07;38.26;;
67298;Laerm;65443;51.436;5.978;2024-03-23T01:32:14;31.35;29.73;33.57;;
67298;Laerm;65443;51.436;5.978;2024-03-23T01:32:24;31.39;29.44;33.49;;
67298;Laerm;65443;51.436;5.978;2024-03-23T01:32:35;31.45;29.84;33.08;;
67298;Laerm;65443;51.436;5.978;2024-03-23T01:32:45;31.61;30.08;34.06;;
67298;Laerm;65443;51.436;5.978;2024-03-23T01:32:56;32.09;30.08;38.13;;
67298;Laerm;65443;51.436;5.978;2024-03-23T01:33:06;33.60;31.41;37.93;;
67298;Laerm;65443;51.436;5.978;2024-03-23T01:33:17;33.10;30.96;37.31;;
67298;Laerm;65443;51.436;5.978;2024-03-23T01:33:27;38.97;31.48;54.84;;
67298;Laerm;65443;51.436;5.978;2024-03-23T01:33:37;32.91;30.81;36.89;;
67298;Laerm;65443;51.436;5.978;2024-03-23T01:33:48;41.43;34.57;44.72;;
67298;Laerm;65443;51.436;5.978;2024-03-23T01:33:58;48.41;39.80;55.81;;
67298;Laerm;65443;51.436;5.978;2024-03-23T01:34:08;61.92;45.78;67.47;;
67298;Laerm;65443;51.436;5.978;2024-03-23T01:34:19;43.81;39.89;48.97;;
67298;Laerm;65443;51.436;5.978;2024-03-23T01:34:30;38.59;35.32;42.31;;
67298;Laerm;65443;51.436;5.978;2024-03-23T01:34:41;34.58;32.83;36.96;;
67298;Laerm;65443;51.436;5.978;2024-03-23T01:34:51;34.11;32.52;44.35;;
67298;Laerm;65443;51.436;5.978;2024-03-23T01:35:01;33.33;31.24;35.98;;
67298;Laerm;65443;51.436;5.978;2024-03-23T01:35:11;33.94;30.98;36.52;;
67298;Laerm;65443;51.436;5.978;2024-03-23T01:35:22;34.55;33.05;36.40;;
67298;Laerm;65443;51.436;5.978;2024-03-23T01:35:32;47.54;34.70;59.79;;
67298;Laerm;65443;51.436;5.978;2024-03-23T01:35:43;62.04;38.83;74.75;;
67298;Laerm;65443;51.436;5.978;2024-03-23T01:35:53;37.16;33.68;41.85;;
67298;Laerm;65443;51.436;5.978;2024-03-23T01:36:03;37.50;34.66;43.51;;
67298;Laerm;65443;51.436;5.978;2024-03-23T01:36:14;35.85;31.05;41.30;;
67298;Laerm;65443;51.436;5.978;2024-03-23T01:36:24;31.41;29.84;34.63;;
67298;Laerm;65443;51.436;5.978;2024-03-23T01:36:34;31.27;29.64;33.35;;
67298;Laerm;65443;51.436;5.978;2024-03-23T01:36:44;31.36;29.41;32.84;;
67298;Laerm;65443;51.436;5.978;2024-03-23T01:36:56;31.54;30.27;34.61;;
67298;Laerm;65443;51.436;5.978;2024-03-23T01:37:06;31.42;29.95;34.51;;
67298;Laerm;65443;51.436;5.978;2024-03-23T01:37:17;31.25;30.13;33.46;;
67298;Laerm;65443;51.436;5.978;2024-03-23T01:37:27;31.35;29.61;33.26;;
67298;Laerm;65443;51.436;5.978;2024-03-23T01:37:37;31.32;29.73;38.05;;
67298;Laerm;65443;51.436;5.978;2024-03-23T01:37:47;31.23;29.82;32.74;;
67298;Laerm;65443;51.436;5.978;2024-03-23T01:37:58;31.19;30.05;33.86;;
67298;Laerm;65443;51.436;5.978;2024-03-23T01:38:08;31.08;29.86;33.19;;
67298;Laerm;65443;51.436;5.978;2024-03-23T01:38:18;31.13;29.81;33.65;;
67298;Laerm;65443;51.436;5.978;2024-03-23T01:38:28;31.19;29.57;34.37;;
67298;Laerm;65443;51.436;5.978;2024-03-23T01:38:39;31.24;30.00;33.53;;
67298;Laerm;65443;51.436;5.978;2024-03-23T01:38:49;31.51;29.42;37.72;;
67298;Laerm;65443;51.436;5.978;2024-03-23T01:38:59;31.27;29.32;35.35;;
67298;Laerm;65443;51.436;5.978;2024-03-23T01:39:10;31.11;29.63;33.44;;
67298;Laerm;65443;51.436;5.978;2024-03-23T01:39:20;31.42;29.72;33.94;;
67298;Laerm;65443;51.436;5.978;2024-03-23T01:39:30;31.75;29.62;34.21;;
67298;Laerm;65443;51.436;5.978;2024-03-23T01:39:40;31.82;29.99;34.06;;
67298;Laerm;65443;51.436;5.978;2024-03-23T01:39:51;31.95;30.08;38.95;;
67298;Laerm;65443;51.436;5.978;2024-03-23T01:40:01;31.66;29.86;34.63;;
67298;Laerm;65443;51.436;5.978;2024-03-23T01:40:15;31.73;29.59;35.73;;
67298;Laerm;65443;51.436;5.978;2024-03-23T01:40:26;33.87;30.54;39.26;;
67298;Laerm;65443;51.436;5.978;2024-03-23T01:40:37;35.61;30.36;44.95;;
67298;Laerm;65443;51.436;5.978;2024-03-23T01:40:47;31.60;30.03;35.34;;
67298;Laerm;65443;51.436;5.978;2024-03-23T01:40:58;31.69;30.04;34.09;;
67298;Laerm;65443;51.436;5.978;2024-03-23T01:41:08;31.77;29.73;35.50;;
67298;Laerm;65443;51.436;5.978;2024-03-23T01:41:18;31.72;30.03;33.69;;
67298;Laerm;65443;51.436;5.978;2024-03-23T01:41:29;31.60;29.63;35.31;;
67298;Laerm;65443;51.436;5.978;2024-03-23T01:41:39;31.76;29.83;35.00;;
67298;Laerm;65443;51.436;5.978;2024-03-23T01:41:52;31.80;29.75;35.91;;
67298;Laerm;65443;51.436;5.978;2024-03-23T01:42:03;31.75;29.78;36.44;;
67298;Laerm;65443;51.436;5.978;2024-03-23T01:42:13;31.53;29.95;33.69;;
67298;Laerm;65443;51.436;5.978;2024-03-23T01:42:23;31.34;29.55;37.36;;
67298;Laerm;65443;51.436;5.978;2024-03-23T01:42:34;31.54;29.78;37.22;;
67298;Laerm;65443;51.436;5.978;2024-03-23T01:43:05;31.66;30.26;34.41;;
67298;Laerm;65443;51.436;5.978;2024-03-23T01:43:14;31.63;29.69;35.57;;
67298;Laerm;65443;51.436;5.978;2024-03-23T01:43:25;31.68;29.96;33.79;;
67298;Laerm;65443;51.436;5.978;2024-03-23T01:43:35;31.66;30.15;34.17;;
67298;Laerm;65443;51.436;5.978;2024-03-23T01:43:45;31.69;29.99;40.63;;
67298;Laerm;65443;51.436;5.978;2024-03-23T01:43:56;31.58;30.30;35.07;;
67298;Laerm;65443;51.436;5.978;2024-03-23T01:44:06;31.68;30.26;33.65;;
67298;Laerm;65443;51.436;5.978;2024-03-23T01:44:21;31.62;30.17;34.67;;
67298;Laerm;65443;51.436;5.978;2024-03-23T01:44:31;31.57;30.15;37.13;;
67298;Laerm;65443;51.436;5.978;2024-03-23T01:44:41;31.55;30.26;35.62;;
67298;Laerm;65443;51.436;5.978;2024-03-23T01:44:51;31.60;29.97;33.26;;
67298;Laerm;65443;51.436;5.978;2024-03-23T01:45:02;31.54;29.46;35.31;;
67298;Laerm;65443;51.436;5.978;2024-03-23T01:45:15;31.58;29.81;37.83;;
67298;Laerm;65443;51.436;5.978;2024-03-23T01:45:25;32.77;30.58;37.05;;
67298;Laerm;65443;51.436;5.978;2024-03-23T01:45:36;32.34;29.99;36.18;;
67298;Laerm;65443;51.436;5.978;2024-03-23T01:45:46;32.50;30.51;40.03;;
67298;Laerm;65443;51.436;5.978;2024-03-23T01:45:56;32.68;30.41;35.91;;
67298;Laerm;65443;51.436;5.978;2024-03-23T01:46:07;32.46;30.52;36.50;;
67298;Laerm;65443;51.436;5.978;2024-03-23T01:46:17;32.84;30.69;39.82;;
67298;Laerm;65443;51.436;5.978;2024-03-23T01:46:27;33.25;31.07;36.33;;
67298;Laerm;65443;51.436;5.978;2024-03-23T01:46:38;32.82;30.72;35.32;;
67298;Laerm;65443;51.436;5.978;2024-03-23T01:46:48;32.32;30.89;34.97;;
67298;Laerm;65443;51.436;5.978;2024-03-23T01:46:59;32.63;30.11;37.36;;
67298;Laerm;65443;51.436;5.978;2024-03-23T01:47:09;32.40;30.21;35.04;;
67298;Laerm;65443;51.436;5.978;2024-03-23T01:47:19;35.86;31.22;44.89;;
67298;Laerm;65443;51.436;5.978;2024-03-23T01:47:30;37.25;30.82;55.60;;
67298;Laerm;65443;51.436;5.978;2024-03-23T01:47:40;33.80;30.07;48.13;;
67298;Laerm;65443;51.436;5.978;2024-03-23T01:47:51;32.50;30.24;35.88;;
67298;Laerm;65443;51.436;5.978;2024-03-23T01:48:02;33.23;30.58;45.30;;
67298;Laerm;65443;51.436;5.978;2024-03-23T01:48:13;32.41;30.25;35.39;;
67298;Laerm;65443;51.436;5.978;2024-03-23T01:48:23;32.61;30.58;41.26;;
67298;Laerm;65443;51.436;5.978;2024-03-23T01:48:34;33.23;30.86;36.43;;
67298;Laerm;65443;51.436;5.978;2024-03-23T01:48:45;33.40;30.92;37.03;;
67298;Laerm;65443;51.436;5.978;2024-03-23T01:48:55;33.26;30.71;47.18;;
67298;Laerm;65443;51.436;5.978;2024-03-23T01:49:06;32.86;31.01;36.67;;
67298;Laerm;65443;51.436;5.978;2024-03-23T01:49:16;33.06;30.60;36.26;;
67298;Laerm;65443;51.436;5.978;2024-03-23T01:49:26;33.42;30.89;44.21;;
67298;Laerm;65443;51.436;5.978;2024-03-23T01:49:37;34.27;31.28;49.17;;
67298;Laerm;65443;51.436;5.978;2024-03-23T01:49:47;33.55;31.24;37.59;;
67298;Laerm;65443;51.436;5.978;2024-03-23T01:49:57;33.99;31.20;39.81;;
67298;Laerm;65443;51.436;5.978;2024-03-23T01:50:08;33.84;31.53;38.51;;
67298;Laerm;65443;51.436;5.978;2024-03-23T01:50:19;34.03;31.18;39.11;;
67298;Laerm;65443;51.436;5.978;2024-03-23T01:50:29;33.62;31.69;44.75;;
67298;Laerm;65443;51.436;5.978;2024-03-23T01:50:43;33.91;31.36;46.88;;
67298;Laerm;65443;51.436;5.978;2024-03-23T01:50:53;33.62;31.03;40.41;;
67298;Laerm;65443;51.436;5.978;2024-03-23T01:51:04;34.83;32.01;52.30;;
67298;Laerm;65443;51.436;5.978;2024-03-23T01:51:14;33.54;31.84;37.37;;
67298;Laerm;65443;51.436;5.978;2024-03-23T01:51:25;34.24;31.82;39.37;;
67298;Laerm;65443;51.436;5.978;2024-03-23T01:51:36;34.34;31.82;41.47;;
67298;Laerm;65443;51.436;5.978;2024-03-23T01:51:47;34.52;31.95;46.77;;
67298;Laerm;65443;51.436;5.978;2024-03-23T01:51:57;34.18;32.10;41.13;;
67298;Laerm;65443;51.436;5.978;2024-03-23T01:52:07;34.49;31.71;43.50;;
67298;Laerm;65443;51.436;5.978;2024-03-23T01:52:18;34.27;31.56;43.99;;
67298;Laerm;65443;51.436;5.978;2024-03-23T01:52:28;34.30;31.96;48.31;;